Terminal Aerodrome Forecast
Issued by NWS

Home | Current Version | Previous Version | Text Only | Print | Product List | Glossary On
Versions: 1 2 3 4 5 6 7 8 9 10 11 12 13 14 15
000
FTUS44 KOUN 240537
TAFPNC
TAF
KPNC 240537Z 2406/2506 15013G38KT P6SM SCT050 OVC100
     FM241100 25012KT P6SM BKN020
     FM241600 33020G30KT P6SM SCT025 BKN080
     FM250000 33011KT P6SM SKC=

USA.gov is the U.S. government's official web portal to all federal, state and local government web resources and services.